sensor_id;sensor_type;location;lat;lon;timestamp;P1;durP1;ratioP1;P2;durP2;ratioP2
19255;SDS011;9762;52.490;13.410;2024-03-02T00:00:51;49.83;;;35.57;;
19255;SDS011;9762;52.490;13.410;2024-03-02T00:03:17;45.23;;;36.33;;
19255;SDS011;9762;52.490;13.410;2024-03-02T00:05:43;49.97;;;35.73;;
19255;SDS011;9762;52.490;13.410;2024-03-02T00:08:13;51.10;;;35.97;;
19255;SDS011;9762;52.490;13.410;2024-03-02T00:10:47;42.43;;;33.97;;
19255;SDS011;9762;52.490;13.410;2024-03-02T00:13:13;44.17;;;31.40;;
19255;SDS011;9762;52.490;13.410;2024-03-02T00:18:12;43.93;;;33.17;;
19255;SDS011;9762;52.490;13.410;2024-03-02T00:20:45;45.80;;;33.23;;
19255;SDS011;9762;52.490;13.410;2024-03-02T00:23:13;44.80;;;32.73;;
19255;SDS011;9762;52.490;13.410;2024-03-02T00:25:41;45.00;;;33.77;;
19255;SDS011;9762;52.490;13.410;2024-03-02T00:28:50;46.73;;;32.67;;
19255;SDS011;9762;52.490;13.410;2024-03-02T00:33:39;45.37;;;32.97;;
19255;SDS011;9762;52.490;13.410;2024-03-02T00:36:07;44.37;;;33.10;;
19255;SDS011;9762;52.490;13.410;2024-03-02T00:38:34;50.40;;;34.40;;
19255;SDS011;9762;52.490;13.410;2024-03-02T00:41:06;42.83;;;32.77;;
19255;SDS011;9762;52.490;13.410;2024-03-02T00:46:23;48.77;;;33.47;;
19255;SDS011;9762;52.490;13.410;2024-03-02T00:48:55;44.87;;;35.23;;
19255;SDS011;9762;52.490;13.410;2024-03-02T00:51:22;47.37;;;35.07;;
19255;SDS011;9762;52.490;13.410;2024-03-02T00:53:50;45.10;;;34.70;;
19255;SDS011;9762;52.490;13.410;2024-03-02T00:56:17;51.00;;;34.67;;
19255;SDS011;9762;52.490;13.410;2024-03-02T00:58:43;42.67;;;33.73;;
19255;SDS011;9762;52.490;13.410;2024-03-02T01:01:09;46.20;;;33.77;;
19255;SDS011;9762;52.490;13.410;2024-03-02T01:03:35;44.90;;;34.43;;
19255;SDS011;9762;52.490;13.410;2024-03-02T01:06:02;46.70;;;35.37;;
19255;SDS011;9762;52.490;13.410;2024-03-02T01:08:28;43.97;;;33.63;;
19255;SDS011;9762;52.490;13.410;2024-03-02T01:10:54;45.73;;;33.10;;
19255;SDS011;9762;52.490;13.410;2024-03-02T01:13:21;43.13;;;34.90;;
19255;SDS011;9762;52.490;13.410;2024-03-02T01:15:47;43.37;;;33.23;;
19255;SDS011;9762;52.490;13.410;2024-03-02T01:18:12;45.87;;;34.13;;
19255;SDS011;9762;52.490;13.410;2024-03-02T01:20:38;44.00;;;33.53;;
19255;SDS011;9762;52.490;13.410;2024-03-02T01:23:04;42.80;;;33.43;;
19255;SDS011;9762;52.490;13.410;2024-03-02T01:25:29;43.70;;;34.03;;
19255;SDS011;9762;52.490;13.410;2024-03-02T01:27:55;45.17;;;34.23;;
19255;SDS011;9762;52.490;13.410;2024-03-02T01:30:20;47.03;;;34.57;;
19255;SDS011;9762;52.490;13.410;2024-03-02T01:32:46;48.00;;;35.17;;
19255;SDS011;9762;52.490;13.410;2024-03-02T01:35:12;50.63;;;33.40;;
19255;SDS011;9762;52.490;13.410;2024-03-02T01:37:38;44.53;;;34.77;;
19255;SDS011;9762;52.490;13.410;2024-03-02T01:40:04;44.40;;;35.37;;
19255;SDS011;9762;52.490;13.410;2024-03-02T01:42:34;51.63;;;36.53;;
19255;SDS011;9762;52.490;13.410;2024-03-02T01:45:04;47.97;;;34.83;;
19255;SDS011;9762;52.490;13.410;2024-03-02T01:47:30;48.27;;;34.03;;
19255;SDS011;9762;52.490;13.410;2024-03-02T01:49:57;48.83;;;36.13;;
19255;SDS011;9762;52.490;13.410;2024-03-02T01:52:23;47.37;;;34.63;;
19255;SDS011;9762;52.490;13.410;2024-03-02T01:54:49;44.10;;;36.13;;
19255;SDS011;9762;52.490;13.410;2024-03-02T01:57:15;56.47;;;36.53;;
19255;SDS011;9762;52.490;13.410;2024-03-02T01:59:40;48.03;;;35.53;;
19255;SDS011;9762;52.490;13.410;2024-03-02T02:02:06;48.83;;;37.30;;
19255;SDS011;9762;52.490;13.410;2024-03-02T02:04:32;48.20;;;36.37;;
19255;SDS011;9762;52.490;13.410;2024-03-02T02:06:58;46.43;;;36.33;;
19255;SDS011;9762;52.490;13.410;2024-03-02T02:09:24;46.00;;;34.90;;
19255;SDS011;9762;52.490;13.410;2024-03-02T02:11:50;53.30;;;37.40;;
19255;SDS011;9762;52.490;13.410;2024-03-02T02:14:16;45.90;;;35.77;;
19255;SDS011;9762;52.490;13.410;2024-03-02T02:16:42;52.77;;;36.20;;
19255;SDS011;9762;52.490;13.410;2024-03-02T02:19:08;46.13;;;34.57;;
19255;SDS011;9762;52.490;13.410;2024-03-02T02:21:34;39.70;;;31.23;;
19255;SDS011;9762;52.490;13.410;2024-03-02T02:24:00;48.23;;;34.17;;
19255;SDS011;9762;52.490;13.410;2024-03-02T02:26:28;44.53;;;35.17;;
19255;SDS011;9762;52.490;13.410;2024-03-02T02:28:54;44.00;;;34.27;;
19255;SDS011;9762;52.490;13.410;2024-03-02T02:31:19;45.43;;;35.43;;
19255;SDS011;9762;52.490;13.410;2024-03-02T02:33:45;51.13;;;35.40;;
19255;SDS011;9762;52.490;13.410;2024-03-02T02:36:10;49.60;;;34.37;;
19255;SDS011;9762;52.490;13.410;2024-03-02T02:38:38;48.37;;;36.40;;
19255;SDS011;9762;52.490;13.410;2024-03-02T02:41:07;49.20;;;36.03;;
19255;SDS011;9762;52.490;13.410;2024-03-02T02:43:33;44.27;;;35.00;;
19255;SDS011;9762;52.490;13.410;2024-03-02T02:45:59;47.20;;;36.93;;
19255;SDS011;9762;52.490;13.410;2024-03-02T02:48:25;49.60;;;36.37;;
19255;SDS011;9762;52.490;13.410;2024-03-02T02:50:50;41.87;;;33.10;;
19255;SDS011;9762;52.490;13.410;2024-03-02T02:53:16;44.30;;;33.73;;
19255;SDS011;9762;52.490;13.410;2024-03-02T02:55:41;49.93;;;36.83;;
19255;SDS011;9762;52.490;13.410;2024-03-02T02:58:08;52.97;;;34.90;;
19255;SDS011;9762;52.490;13.410;2024-03-02T03:00:34;42.03;;;34.60;;
19255;SDS011;9762;52.490;13.410;2024-03-02T03:03:01;51.30;;;36.10;;
19255;SDS011;9762;52.490;13.410;2024-03-02T03:05:27;40.43;;;32.37;;
19255;SDS011;9762;52.490;13.410;2024-03-02T03:07:53;45.37;;;34.97;;
19255;SDS011;9762;52.490;13.410;2024-03-02T03:10:19;45.00;;;33.83;;
19255;SDS011;9762;52.490;13.410;2024-03-02T03:12:47;44.70;;;32.67;;
19255;SDS011;9762;52.490;13.410;2024-03-02T03:15:13;44.20;;;34.03;;
19255;SDS011;9762;52.490;13.410;2024-03-02T03:17:39;45.20;;;33.90;;
19255;SDS011;9762;52.490;13.410;2024-03-02T03:20:05;45.07;;;34.13;;
19255;SDS011;9762;52.490;13.410;2024-03-02T03:22:35;39.63;;;33.57;;
19255;SDS011;9762;52.490;13.410;2024-03-02T03:25:01;40.67;;;31.17;;
19255;SDS011;9762;52.490;13.410;2024-03-02T03:27:26;46.30;;;34.87;;
19255;SDS011;9762;52.490;13.410;2024-03-02T03:29:52;41.67;;;31.53;;
19255;SDS011;9762;52.490;13.410;2024-03-02T03:32:19;43.07;;;33.70;;
19255;SDS011;9762;52.490;13.410;2024-03-02T03:34:45;43.57;;;32.13;;
19255;SDS011;9762;52.490;13.410;2024-03-02T03:37:10;36.10;;;30.97;;
19255;SDS011;9762;52.490;13.410;2024-03-02T03:39:36;40.03;;;30.03;;
19255;SDS011;9762;52.490;13.410;2024-03-02T03:42:02;40.20;;;31.90;;
19255;SDS011;9762;52.490;13.410;2024-03-02T03:44:28;41.23;;;30.40;;
19255;SDS011;9762;52.490;13.410;2024-03-02T03:46:53;40.13;;;30.77;;
19255;SDS011;9762;52.490;13.410;2024-03-02T03:49:19;35.63;;;29.57;;
19255;SDS011;9762;52.490;13.410;2024-03-02T03:51:44;39.73;;;30.33;;
19255;SDS011;9762;52.490;13.410;2024-03-02T03:54:10;36.93;;;30.30;;
19255;SDS011;9762;52.490;13.410;2024-03-02T03:56:36;38.97;;;30.97;;
19255;SDS011;9762;52.490;13.410;2024-03-02T03:59:02;44.47;;;30.40;;
19255;SDS011;9762;52.490;13.410;2024-03-02T04:01:29;38.07;;;29.27;;
19255;SDS011;9762;52.490;13.410;2024-03-02T04:03:55;38.53;;;30.17;;
19255;SDS011;9762;52.490;13.410;2024-03-02T04:06:21;38.13;;;30.87;;
19255;SDS011;9762;52.490;13.410;2024-03-02T04:08:46;34.20;;;29.80;;
19255;SDS011;9762;52.490;13.410;2024-03-02T04:11:12;38.53;;;31.10;;
19255;SDS011;9762;52.490;13.410;2024-03-02T04:13:37;40.90;;;30.90;;
19255;SDS011;9762;52.490;13.410;2024-03-02T04:16:03;37.13;;;29.53;;
19255;SDS011;9762;52.490;13.410;2024-03-02T04:18:30;42.83;;;30.83;;
19255;SDS011;9762;52.490;13.410;2024-03-02T04:20:57;37.07;;;28.90;;
19255;SDS011;9762;52.490;13.410;2024-03-02T04:23:24;37.40;;;29.20;;
19255;SDS011;9762;52.490;13.410;2024-03-02T04:25:50;39.50;;;30.07;;
19255;SDS011;9762;52.490;13.410;2024-03-02T04:28:16;36.00;;;27.73;;
19255;SDS011;9762;52.490;13.410;2024-03-02T04:30:41;34.50;;;28.30;;
19255;SDS011;9762;52.490;13.410;2024-03-02T04:33:07;31.27;;;26.20;;
19255;SDS011;9762;52.490;13.410;2024-03-02T04:35:35;36.30;;;25.77;;
19255;SDS011;9762;52.490;13.410;2024-03-02T04:38:01;34.23;;;26.70;;
19255;SDS011;9762;52.490;13.410;2024-03-02T04:40:26;30.87;;;24.93;;
19255;SDS011;9762;52.490;13.410;2024-03-02T04:42:52;33.03;;;25.27;;
19255;SDS011;9762;52.490;13.410;2024-03-02T04:45:18;30.70;;;25.83;;
19255;SDS011;9762;52.490;13.410;2024-03-02T04:47:43;35.57;;;25.53;;
19255;SDS011;9762;52.490;13.410;2024-03-02T04:50:09;29.50;;;24.83;;
19255;SDS011;9762;52.490;13.410;2024-03-02T04:52:35;34.50;;;25.70;;
19255;SDS011;9762;52.490;13.410;2024-03-02T04:55:01;29.00;;;24.43;;
19255;SDS011;9762;52.490;13.410;2024-03-02T04:57:42;34.87;;;27.80;;
19255;SDS011;9762;52.490;13.410;2024-03-02T05:00:08;34.60;;;26.57;;
19255;SDS011;9762;52.490;13.410;2024-03-02T05:02:34;29.80;;;24.93;;
19255;SDS011;9762;52.490;13.410;2024-03-02T05:05:00;31.20;;;25.50;;
19255;SDS011;9762;52.490;13.410;2024-03-02T05:07:26;29.90;;;25.27;;
19255;SDS011;9762;52.490;13.410;2024-03-02T05:09:51;34.20;;;26.10;;
19255;SDS011;9762;52.490;13.410;2024-03-02T05:12:17;31.43;;;26.13;;
19255;SDS011;9762;52.490;13.410;2024-03-02T05:15:01;31.23;;;23.83;;
19255;SDS011;9762;52.490;13.410;2024-03-02T05:17:27;31.37;;;24.10;;
19255;SDS011;9762;52.490;13.410;2024-03-02T05:19:52;29.07;;;24.70;;
19255;SDS011;9762;52.490;13.410;2024-03-02T05:22:18;29.33;;;24.50;;
19255;SDS011;9762;52.490;13.410;2024-03-02T05:24:43;28.57;;;23.63;;
19255;SDS011;9762;52.490;13.410;2024-03-02T05:27:09;29.63;;;24.97;;
19255;SDS011;9762;52.490;13.410;2024-03-02T05:29:35;30.00;;;25.90;;
19255;SDS011;9762;52.490;13.410;2024-03-02T05:32:00;31.17;;;25.80;;
19255;SDS011;9762;52.490;13.410;2024-03-02T05:34:26;33.57;;;26.83;;
19255;SDS011;9762;52.490;13.410;2024-03-02T05:36:51;34.23;;;26.60;;
19255;SDS011;9762;52.490;13.410;2024-03-02T05:39:17;34.90;;;28.13;;
19255;SDS011;9762;52.490;13.410;2024-03-02T05:41:43;32.43;;;26.33;;
19255;SDS011;9762;52.490;13.410;2024-03-02T05:44:08;31.70;;;27.20;;
19255;SDS011;9762;52.490;13.410;2024-03-02T05:46:34;32.23;;;26.30;;
19255;SDS011;9762;52.490;13.410;2024-03-02T05:49:00;33.77;;;27.13;;
19255;SDS011;9762;52.490;13.410;2024-03-02T05:51:26;35.60;;;27.57;;
19255;SDS011;9762;52.490;13.410;2024-03-02T05:53:51;36.60;;;26.40;;
19255;SDS011;9762;52.490;13.410;2024-03-02T05:56:17;30.67;;;25.53;;
19255;SDS011;9762;52.490;13.410;2024-03-02T05:58:43;32.00;;;27.00;;
19255;SDS011;9762;52.490;13.410;2024-03-02T06:01:22;36.97;;;27.67;;
19255;SDS011;9762;52.490;13.410;2024-03-02T06:03:53;37.40;;;27.70;;
19255;SDS011;9762;52.490;13.410;2024-03-02T06:06:20;35.17;;;28.40;;
19255;SDS011;9762;52.490;13.410;2024-03-02T06:08:46;34.03;;;28.83;;
19255;SDS011;9762;52.490;13.410;2024-03-02T06:11:12;38.20;;;29.43;;
19255;SDS011;9762;52.490;13.410;2024-03-02T06:13:37;41.57;;;30.57;;
19255;SDS011;9762;52.490;13.410;2024-03-02T06:16:03;40.53;;;29.33;;
19255;SDS011;9762;52.490;13.410;2024-03-02T06:18:29;38.03;;;30.60;;
19255;SDS011;9762;52.490;13.410;2024-03-02T06:20:54;40.93;;;31.03;;
19255;SDS011;9762;52.490;13.410;2024-03-02T06:23:20;39.37;;;31.47;;
19255;SDS011;9762;52.490;13.410;2024-03-02T06:25:46;39.53;;;30.80;;
19255;SDS011;9762;52.490;13.410;2024-03-02T06:28:11;42.53;;;30.33;;
19255;SDS011;9762;52.490;13.410;2024-03-02T06:30:37;45.60;;;32.07;;
19255;SDS011;9762;52.490;13.410;2024-03-02T06:33:03;42.53;;;31.03;;
19255;SDS011;9762;52.490;13.410;2024-03-02T06:35:28;41.30;;;30.70;;
19255;SDS011;9762;52.490;13.410;2024-03-02T06:37:54;37.17;;;29.33;;
19255;SDS011;9762;52.490;13.410;2024-03-02T06:40:20;39.13;;;30.93;;
19255;SDS011;9762;52.490;13.410;2024-03-02T06:42:46;39.60;;;29.27;;
19255;SDS011;9762;52.490;13.410;2024-03-02T06:45:12;37.17;;;30.83;;
19255;SDS011;9762;52.490;13.410;2024-03-02T06:47:38;40.63;;;29.47;;
19255;SDS011;9762;52.490;13.410;2024-03-02T06:50:03;41.30;;;31.33;;
19255;SDS011;9762;52.490;13.410;2024-03-02T06:52:29;36.00;;;29.53;;
19255;SDS011;9762;52.490;13.410;2024-03-02T06:54:55;39.67;;;31.17;;
19255;SDS011;9762;52.490;13.410;2024-03-02T06:57:20;36.93;;;30.23;;
19255;SDS011;9762;52.490;13.410;2024-03-02T06:59:46;39.70;;;31.63;;
19255;SDS011;9762;52.490;13.410;2024-03-02T07:02:15;39.30;;;29.90;;
19255;SDS011;9762;52.490;13.410;2024-03-02T07:04:40;42.07;;;31.83;;
19255;SDS011;9762;52.490;13.410;2024-03-02T07:07:06;41.53;;;31.13;;
19255;SDS011;9762;52.490;13.410;2024-03-02T07:09:32;50.73;;;38.10;;
19255;SDS011;9762;52.490;13.410;2024-03-02T07:11:57;51.53;;;38.33;;
19255;SDS011;9762;52.490;13.410;2024-03-02T07:14:23;41.30;;;33.20;;
19255;SDS011;9762;52.490;13.410;2024-03-02T07:17:08;43.40;;;33.53;;
19255;SDS011;9762;52.490;13.410;2024-03-02T07:19:35;41.37;;;30.27;;
19255;SDS011;9762;52.490;13.410;2024-03-02T07:22:01;54.43;;;43.63;;
19255;SDS011;9762;52.490;13.410;2024-03-02T07:24:30;52.27;;;38.57;;
19255;SDS011;9762;52.490;13.410;2024-03-02T07:26:56;48.07;;;34.03;;
19255;SDS011;9762;52.490;13.410;2024-03-02T07:29:21;39.50;;;31.33;;
19255;SDS011;9762;52.490;13.410;2024-03-02T07:31:47;41.00;;;30.43;;
19255;SDS011;9762;52.490;13.410;2024-03-02T07:34:13;40.30;;;31.53;;
19255;SDS011;9762;52.490;13.410;2024-03-02T07:36:38;41.67;;;30.07;;
19255;SDS011;9762;52.490;13.410;2024-03-02T07:39:04;43.93;;;31.77;;
19255;SDS011;9762;52.490;13.410;2024-03-02T07:41:30;36.70;;;29.93;;
19255;SDS011;9762;52.490;13.410;2024-03-02T07:43:56;34.27;;;29.80;;
19255;SDS011;9762;52.490;13.410;2024-03-02T07:46:21;40.17;;;30.47;;
19255;SDS011;9762;52.490;13.410;2024-03-02T07:48:47;37.67;;;29.37;;
19255;SDS011;9762;52.490;13.410;2024-03-02T07:51:13;36.83;;;30.53;;
19255;SDS011;9762;52.490;13.410;2024-03-02T07:53:39;40.50;;;29.67;;
19255;SDS011;9762;52.490;13.410;2024-03-02T07:56:04;35.90;;;30.17;;
19255;SDS011;9762;52.490;13.410;2024-03-02T07:58:31;37.30;;;28.97;;
19255;SDS011;9762;52.490;13.410;2024-03-02T08:00:58;39.33;;;30.77;;
19255;SDS011;9762;52.490;13.410;2024-03-02T08:03:26;39.27;;;30.43;;
19255;SDS011;9762;52.490;13.410;2024-03-02T08:05:52;47.47;;;33.50;;
19255;SDS011;9762;52.490;13.410;2024-03-02T08:08:17;56.43;;;40.90;;
19255;SDS011;9762;52.490;13.410;2024-03-02T08:10:43;43.37;;;33.10;;
19255;SDS011;9762;52.490;13.410;2024-03-02T08:13:09;39.07;;;29.80;;
19255;SDS011;9762;52.490;13.410;2024-03-02T08:15:35;38.90;;;30.67;;
19255;SDS011;9762;52.490;13.410;2024-03-02T08:18:00;40.87;;;31.67;;
19255;SDS011;9762;52.490;13.410;2024-03-02T08:20:26;36.73;;;29.67;;
19255;SDS011;9762;52.490;13.410;2024-03-02T08:22:52;39.53;;;29.57;;
19255;SDS011;9762;52.490;13.410;2024-03-02T08:25:20;35.33;;;28.17;;
19255;SDS011;9762;52.490;13.410;2024-03-02T08:27:46;38.57;;;32.10;;
19255;SDS011;9762;52.490;13.410;2024-03-02T08:30:12;40.87;;;31.33;;
19255;SDS011;9762;52.490;13.410;2024-03-02T08:32:38;45.50;;;31.77;;
19255;SDS011;9762;52.490;13.410;2024-03-02T08:35:04;40.60;;;30.77;;
19255;SDS011;9762;52.490;13.410;2024-03-02T08:37:30;40.83;;;31.30;;
19255;SDS011;9762;52.490;13.410;2024-03-02T08:39:55;36.27;;;29.23;;
19255;SDS011;9762;52.490;13.410;2024-03-02T08:42:21;35.77;;;28.83;;
19255;SDS011;9762;52.490;13.410;2024-03-02T08:44:47;55.20;;;42.20;;
19255;SDS011;9762;52.490;13.410;2024-03-02T08:47:13;39.07;;;31.00;;
19255;SDS011;9762;52.490;13.410;2024-03-02T08:49:39;42.07;;;30.97;;
19255;SDS011;9762;52.490;13.410;2024-03-02T08:52:05;35.70;;;28.67;;
19255;SDS011;9762;52.490;13.410;2024-03-02T08:54:30;36.03;;;27.60;;
19255;SDS011;9762;52.490;13.410;2024-03-02T08:56:57;39.60;;;29.20;;
19255;SDS011;9762;52.490;13.410;2024-03-02T08:59:23;35.27;;;28.23;;
19255;SDS011;9762;52.490;13.410;2024-03-02T09:01:50;36.47;;;29.40;;
19255;SDS011;9762;52.490;13.410;2024-03-02T09:04:15;35.00;;;28.03;;
19255;SDS011;9762;52.490;13.410;2024-03-02T09:06:41;38.10;;;29.50;;
19255;SDS011;9762;52.490;13.410;2024-03-02T09:09:07;34.60;;;27.80;;
19255;SDS011;9762;52.490;13.410;2024-03-02T09:11:33;35.80;;;26.50;;
19255;SDS011;9762;52.490;13.410;2024-03-02T09:13:59;34.00;;;28.20;;
19255;SDS011;9762;52.490;13.410;2024-03-02T09:16:25;42.20;;;28.77;;
19255;SDS011;9762;52.490;13.410;2024-03-02T09:18:55;34.57;;;26.47;;
19255;SDS011;9762;52.490;13.410;2024-03-02T09:21:21;36.40;;;28.47;;
19255;SDS011;9762;52.490;13.410;2024-03-02T09:23:47;33.83;;;27.57;;
19255;SDS011;9762;52.490;13.410;2024-03-02T09:26:13;34.10;;;28.27;;
19255;SDS011;9762;52.490;13.410;2024-03-02T09:28:43;39.57;;;28.67;;
19255;SDS011;9762;52.490;13.410;2024-03-02T09:31:09;35.27;;;28.63;;
19255;SDS011;9762;52.490;13.410;2024-03-02T09:33:34;38.47;;;29.33;;
19255;SDS011;9762;52.490;13.410;2024-03-02T09:36:00;36.73;;;28.57;;
19255;SDS011;9762;52.490;13.410;2024-03-02T09:38:25;35.20;;;29.07;;
19255;SDS011;9762;52.490;13.410;2024-03-02T09:40:51;36.27;;;29.50;;
19255;SDS011;9762;52.490;13.410;2024-03-02T09:43:17;87.73;;;66.20;;
19255;SDS011;9762;52.490;13.410;2024-03-02T09:45:43;50.47;;;36.83;;
19255;SDS011;9762;52.490;13.410;2024-03-02T09:48:10;38.63;;;30.47;;
19255;SDS011;9762;52.490;13.410;2024-03-02T09:50:35;37.20;;;29.27;;
19255;SDS011;9762;52.490;13.410;2024-03-02T09:53:01;33.43;;;27.37;;
19255;SDS011;9762;52.490;13.410;2024-03-02T09:55:27;36.13;;;27.77;;
19255;SDS011;9762;52.490;13.410;2024-03-02T09:57:53;31.50;;;26.67;;
19255;SDS011;9762;52.490;13.410;2024-03-02T10:00:18;39.00;;;27.80;;
19255;SDS011;9762;52.490;13.410;2024-03-02T10:02:44;31.73;;;25.83;;
19255;SDS011;9762;52.490;13.410;2024-03-02T10:05:14;37.70;;;27.23;;
19255;SDS011;9762;52.490;13.410;2024-03-02T10:07:58;31.50;;;25.10;;
19255;SDS011;9762;52.490;13.410;2024-03-02T10:10:40;28.70;;;25.57;;
19255;SDS011;9762;52.490;13.410;2024-03-02T10:13:08;31.07;;;26.60;;
19255;SDS011;9762;52.490;13.410;2024-03-02T10:15:35;34.00;;;25.83;;
19255;SDS011;9762;52.490;13.410;2024-03-02T10:18:07;33.17;;;26.13;;
19255;SDS011;9762;52.490;13.410;2024-03-02T10:20:35;31.70;;;25.83;;
19255;SDS011;9762;52.490;13.410;2024-03-02T10:23:16;28.90;;;23.53;;
19255;SDS011;9762;52.490;13.410;2024-03-02T10:25:42;32.00;;;24.70;;
19255;SDS011;9762;52.490;13.410;2024-03-02T10:28:08;28.07;;;21.57;;
19255;SDS011;9762;52.490;13.410;2024-03-02T10:30:34;32.17;;;22.33;;
19255;SDS011;9762;52.490;13.410;2024-03-02T10:33:01;29.13;;;22.83;;
19255;SDS011;9762;52.490;13.410;2024-03-02T10:35:27;31.07;;;23.57;;
19255;SDS011;9762;52.490;13.410;2024-03-02T10:37:53;26.43;;;21.30;;
19255;SDS011;9762;52.490;13.410;2024-03-02T10:40:22;26.40;;;22.10;;
19255;SDS011;9762;52.490;13.410;2024-03-02T10:42:48;25.43;;;20.97;;
19255;SDS011;9762;52.490;13.410;2024-03-02T10:45:15;27.10;;;21.53;;
19255;SDS011;9762;52.490;13.410;2024-03-02T10:47:42;29.57;;;21.97;;
19255;SDS011;9762;52.490;13.410;2024-03-02T10:50:09;25.90;;;20.80;;
19255;SDS011;9762;52.490;13.410;2024-03-02T10:52:35;31.70;;;26.47;;
19255;SDS011;9762;52.490;13.410;2024-03-02T10:55:01;39.87;;;29.57;;
19255;SDS011;9762;52.490;13.410;2024-03-02T10:57:32;28.07;;;21.03;;
19255;SDS011;9762;52.490;13.410;2024-03-02T11:00:06;21.17;;;18.87;;
19255;SDS011;9762;52.490;13.410;2024-03-02T11:02:39;29.43;;;20.17;;
19255;SDS011;9762;52.490;13.410;2024-03-02T11:05:07;24.47;;;18.70;;
19255;SDS011;9762;52.490;13.410;2024-03-02T11:07:35;23.30;;;19.07;;
19255;SDS011;9762;52.490;13.410;2024-03-02T11:10:03;28.27;;;23.23;;
19255;SDS011;9762;52.490;13.410;2024-03-02T11:12:39;32.00;;;25.53;;
19255;SDS011;9762;52.490;13.410;2024-03-02T11:15:17;25.23;;;19.37;;
19255;SDS011;9762;52.490;13.410;2024-03-02T11:17:46;20.43;;;18.27;;
19255;SDS011;9762;52.490;13.410;2024-03-02T11:20:12;22.07;;;18.73;;
19255;SDS011;9762;52.490;13.410;2024-03-02T11:22:39;23.00;;;18.17;;
19255;SDS011;9762;52.490;13.410;2024-03-02T11:25:06;23.80;;;18.67;;
19255;SDS011;9762;52.490;13.410;2024-03-02T11:33:05;29.77;;;21.17;;
19255;SDS011;9762;52.490;13.410;2024-03-02T11:35:36;21.67;;;19.23;;
19255;SDS011;9762;52.490;13.410;2024-03-02T11:38:03;23.67;;;19.87;;
19255;SDS011;9762;52.490;13.410;2024-03-02T11:40:29;22.57;;;19.77;;
19255;SDS011;9762;52.490;13.410;2024-03-02T11:42:56;24.43;;;20.33;;
19255;SDS011;9762;52.490;13.410;2024-03-02T11:45:22;25.90;;;19.03;;
19255;SDS011;9762;52.490;13.410;2024-03-02T11:47:55;89.17;;;63.13;;
19255;SDS011;9762;52.490;13.410;2024-03-02T11:50:36;23.93;;;19.33;;
19255;SDS011;9762;52.490;13.410;2024-03-02T11:53:05;21.40;;;19.13;;
19255;SDS011;9762;52.490;13.410;2024-03-02T11:55:34;21.50;;;18.70;;
19255;SDS011;9762;52.490;13.410;2024-03-02T11:58:01;23.13;;;18.10;;
19255;SDS011;9762;52.490;13.410;2024-03-02T12:00:30;23.83;;;18.73;;
19255;SDS011;9762;52.490;13.410;2024-03-02T12:05:32;21.30;;;17.07;;
19255;SDS011;9762;52.490;13.410;2024-03-02T12:08:00;19.37;;;17.23;;
19255;SDS011;9762;52.490;13.410;2024-03-02T12:10:27;21.30;;;17.23;;
19255;SDS011;9762;52.490;13.410;2024-03-02T12:12:59;22.83;;;18.87;;
19255;SDS011;9762;52.490;13.410;2024-03-02T12:15:27;23.60;;;18.03;;
19255;SDS011;9762;52.490;13.410;2024-03-02T12:17:54;20.20;;;17.10;;
19255;SDS011;9762;52.490;13.410;2024-03-02T12:20:21;22.97;;;17.47;;
19255;SDS011;9762;52.490;13.410;2024-03-02T12:22:48;19.23;;;17.30;;
19255;SDS011;9762;52.490;13.410;2024-03-02T12:25:16;21.60;;;16.60;;
19255;SDS011;9762;52.490;13.410;2024-03-02T12:27:42;19.70;;;17.13;;
19255;SDS011;9762;52.490;13.410;2024-03-02T12:30:08;20.83;;;17.63;;
19255;SDS011;9762;52.490;13.410;2024-03-02T12:32:36;23.60;;;17.60;;
19255;SDS011;9762;52.490;13.410;2024-03-02T12:35:04;19.70;;;17.60;;
19255;SDS011;9762;52.490;13.410;2024-03-02T12:37:30;24.13;;;18.17;;
19255;SDS011;9762;52.490;13.410;2024-03-02T12:39:56;19.37;;;17.33;;
19255;SDS011;9762;52.490;13.410;2024-03-02T12:42:23;19.17;;;16.70;;
19255;SDS011;9762;52.490;13.410;2024-03-02T12:44:52;36.53;;;27.13;;
19255;SDS011;9762;52.490;13.410;2024-03-02T12:47:21;21.93;;;18.77;;
19255;SDS011;9762;52.490;13.410;2024-03-02T12:49:46;18.50;;;16.60;;
19255;SDS011;9762;52.490;13.410;2024-03-02T12:52:13;19.83;;;16.97;;
19255;SDS011;9762;52.490;13.410;2024-03-02T12:54:38;20.53;;;15.93;;
19255;SDS011;9762;52.490;13.410;2024-03-02T12:57:04;19.50;;;16.33;;
19255;SDS011;9762;52.490;13.410;2024-03-02T12:59:30;20.13;;;17.23;;
19255;SDS011;9762;52.490;13.410;2024-03-02T13:01:56;19.87;;;17.13;;
19255;SDS011;9762;52.490;13.410;2024-03-02T13:04:26;20.07;;;16.50;;
19255;SDS011;9762;52.490;13.410;2024-03-02T13:06:53;17.50;;;15.53;;
19255;SDS011;9762;52.490;13.410;2024-03-02T13:09:23;18.03;;;16.20;;
19255;SDS011;9762;52.490;13.410;2024-03-02T13:11:49;17.00;;;15.25;;
19255;SDS011;9762;52.490;13.410;2024-03-02T13:14:15;20.73;;;16.85;;
19255;SDS011;9762;52.490;13.410;2024-03-02T13:16:41;17.75;;;15.05;;
19255;SDS011;9762;52.490;13.410;2024-03-02T13:19:13;19.13;;;16.30;;
19255;SDS011;9762;52.490;13.410;2024-03-02T13:21:39;18.52;;;16.65;;
19255;SDS011;9762;52.490;13.410;2024-03-02T13:24:05;18.42;;;16.63;;
19255;SDS011;9762;52.490;13.410;2024-03-02T13:26:31;18.15;;;16.25;;
19255;SDS011;9762;52.490;13.410;2024-03-02T13:28:57;17.35;;;15.50;;
19255;SDS011;9762;52.490;13.410;2024-03-02T13:31:22;17.23;;;15.13;;
19255;SDS011;9762;52.490;13.410;2024-03-02T13:33:48;19.67;;;15.77;;
19255;SDS011;9762;52.490;13.410;2024-03-02T13:36:13;17.52;;;15.55;;
19255;SDS011;9762;52.490;13.410;2024-03-02T13:38:39;21.45;;;16.63;;
19255;SDS011;9762;52.490;13.410;2024-03-02T13:41:05;18.65;;;16.17;;
19255;SDS011;9762;52.490;13.410;2024-03-02T13:43:30;17.42;;;15.63;;
19255;SDS011;9762;52.490;13.410;2024-03-02T13:45:57;16.70;;;14.93;;
19255;SDS011;9762;52.490;13.410;2024-03-02T13:48:24;17.10;;;15.25;;
19255;SDS011;9762;52.490;13.410;2024-03-02T13:50:51;18.05;;;16.10;;
19255;SDS011;9762;52.490;13.410;2024-03-02T13:53:18;17.98;;;15.90;;
19255;SDS011;9762;52.490;13.410;2024-03-02T13:55:44;17.00;;;14.85;;
19255;SDS011;9762;52.490;13.410;2024-03-02T13:58:09;16.17;;;14.50;;
19255;SDS011;9762;52.490;13.410;2024-03-02T14:00:36;17.50;;;14.33;;
19255;SDS011;9762;52.490;13.410;2024-03-02T14:03:03;14.73;;;13.23;;
19255;SDS011;9762;52.490;13.410;2024-03-02T14:05:30;15.83;;;13.77;;
19255;SDS011;9762;52.490;13.410;2024-03-02T14:07:56;14.23;;;12.73;;
19255;SDS011;9762;52.490;13.410;2024-03-02T14:10:22;14.47;;;12.97;;
19255;SDS011;9762;52.490;13.410;2024-03-02T14:12:48;18.80;;;13.37;;
19255;SDS011;9762;52.490;13.410;2024-03-02T14:15:14;13.60;;;11.43;;
19255;SDS011;9762;52.490;13.410;2024-03-02T14:17:40;15.17;;;12.03;;
19255;SDS011;9762;52.490;13.410;2024-03-02T14:20:06;14.57;;;13.07;;
19255;SDS011;9762;52.490;13.410;2024-03-02T14:22:32;14.10;;;12.60;;
19255;SDS011;9762;52.490;13.410;2024-03-02T14:24:59;15.17;;;12.77;;
19255;SDS011;9762;52.490;13.410;2024-03-02T14:27:24;16.83;;;13.03;;
19255;SDS011;9762;52.490;13.410;2024-03-02T14:29:50;13.47;;;12.17;;
19255;SDS011;9762;52.490;13.410;2024-03-02T14:32:16;16.00;;;11.87;;
19255;SDS011;9762;52.490;13.410;2024-03-02T14:34:42;15.57;;;11.17;;